»·PEaware :: SWA2054 KLAS-KBLI

SWA2054 :: KLAS-KBLI

FLIGHT INFORMATION

Flight Status: Arrived
Operator:
Southwest Airlines
More flights by this operator :: More flights under this callsign
Pilot: Daniel W. (24238)
Aircraft: BOEING 737-700
(B737)
More flights by this aircraft type
Origin: KLAS Harry Reid Intl
United States
Destination: KBLI Bellingham Intl
United States
More flights between these airports :: More routes between these airports
Route: JOHKR3 KENNO LOMIA LKV POWEL PAE MADEE4
File this flight plan on PilotEdge
Remarks: PBN / A1D1O1S2T1 NAV / RNVD1E1A1 RNP10 DAT / 1FANSE2PDC REG / N248WN EET / KZOA0028 KZSE0108 CODE / A24FB8
Altitude:
(Current/Filed)
38,000ft
Speed:
(Current/Filed)
447kts
Departed: 02-Mar-23 02:34 PM
Arrived: 02-Mar-23 04:53 PM
Distance/Time
Traveled:
829nm/2:19
Distance/Time
To Go:
Arrived

Flight Plot

Page will automatically refresh every two minutes.

Flight plan parsing failed; only flown route is shown


Map Options




Map Legend


Flown Route
Filed Route
Departure Airport
Arrival Airport
Navaid (VOR, NDB)
Fix

Horizontal Profiles

Position Reports

Time Latitude Longitude Heading Altitude Ground
Speed
02-Mar-23 13:41 36.082853 -115.150292 261 2186ft 0kts
02-Mar-23 13:42 36.082853 -115.150292 261 2186ft 0kts
02-Mar-23 13:43 36.082853 -115.150292 261 2186ft 0kts
02-Mar-23 13:44 36.082853 -115.150292 261 2186ft 0kts
02-Mar-23 13:45 36.082853 -115.150292 261 2186ft 0kts
02-Mar-23 13:46 36.082853 -115.150292 261 2186ft 0kts
02-Mar-23 13:47 36.082853 -115.150292 261 2186ft 0kts
02-Mar-23 13:48 36.082853 -115.150292 261 2186ft 0kts
02-Mar-23 13:49 36.082853 -115.150292 261 2186ft 0kts
02-Mar-23 13:50 36.082853 -115.150292 261 2186ft 0kts
02-Mar-23 13:51 36.082853 -115.150292 261 2186ft 0kts
02-Mar-23 13:52 36.082853 -115.150292 261 2186ft 0kts
02-Mar-23 13:53 36.082853 -115.150292 261 2186ft 0kts
02-Mar-23 13:54 36.082853 -115.150292 261 2186ft 0kts
02-Mar-23 13:55 36.082853 -115.150292 261 2187ft 0kts
02-Mar-23 13:56 36.082853 -115.150292 261 2187ft 0kts
02-Mar-23 13:57 36.082853 -115.150292 261 2187ft 0kts
02-Mar-23 13:58 36.082853 -115.150292 261 2187ft 0kts
02-Mar-23 13:59 36.082853 -115.150292 261 2187ft 0kts
02-Mar-23 14:00 36.082853 -115.150292 261 2187ft 0kts
02-Mar-23 14:01 36.082853 -115.150292 261 2187ft 0kts
02-Mar-23 14:02 36.082853 -115.150292 261 2187ft 0kts
02-Mar-23 14:03 36.082853 -115.150292 261 2187ft 0kts
02-Mar-23 14:04 36.082853 -115.150292 261 2187ft 0kts
02-Mar-23 14:05 36.082853 -115.150292 261 2186ft 0kts
02-Mar-23 14:06 36.082853 -115.150292 261 2186ft 0kts
02-Mar-23 14:08 36.082853 -115.150292 261 2186ft 0kts
02-Mar-23 14:09 36.082853 -115.150292 261 2186ft 0kts
02-Mar-23 14:10 36.082853 -115.150292 261 2186ft 0kts
02-Mar-23 14:11 36.082853 -115.150292 261 2186ft 0kts
02-Mar-23 14:12 36.082853 -115.150292 261 2186ft 0kts
02-Mar-23 14:13 36.082853 -115.150292 261 2186ft 0kts
02-Mar-23 14:14 36.082853 -115.150292 261 2186ft 0kts
02-Mar-23 14:15 36.082853 -115.150292 261 2186ft 0kts
02-Mar-23 14:16 36.082853 -115.150292 261 2186ft 0kts
02-Mar-23 14:17 36.082853 -115.150292 261 2186ft 0kts
02-Mar-23 14:18 36.082853 -115.150292 261 2186ft 0kts
02-Mar-23 14:19 36.082853 -115.150292 261 2186ft 0kts
02-Mar-23 14:20 36.082853 -115.150292 261 2214ft 0kts
02-Mar-23 14:21 36.082853 -115.150292 261 2214ft 0kts
02-Mar-23 14:22 36.082853 -115.150292 261 2214ft 0kts
02-Mar-23 14:23 36.083023 -115.149775 205 2187ft 0kts
02-Mar-23 14:24 36.083023 -115.149775 205 2187ft 0kts
02-Mar-23 14:25 36.083023 -115.149775 205 2187ft 0kts
02-Mar-23 14:26 36.082220 -115.149735 224 2188ft 11kts
02-Mar-23 14:27 36.079404 -115.152017 179 2187ft 1kts
02-Mar-23 14:28 36.079392 -115.152017 179 2187ft 0kts
02-Mar-23 14:29 36.078914 -115.152124 223 2188ft 7kts
02-Mar-23 14:30 36.078044 -115.156114 270 2187ft 16kts
02-Mar-23 14:31 36.078032 -115.162663 266 2186ft 10kts
02-Mar-23 14:31 36.076263 -115.164122 204 2187ft 19kts
02-Mar-23 14:33 36.075247 -115.166948 23 2191ft 13kts
02-Mar-23 14:34 36.102180 -115.152751 7 3266ft 161kts
02-Mar-23 14:35 36.117622 -115.202881 261 6351ft 224kts
02-Mar-23 14:36 36.101348 -115.289391 229 9672ft 283kts
02-Mar-23 14:36 36.034031 -115.325699 202 11495ft 359kts
02-Mar-23 14:37 35.984788 -115.421983 259 15279ft 365kts
02-Mar-23 14:38 35.963868 -115.547902 256 18596ft 384kts
02-Mar-23 14:40 35.936994 -115.701824 258 21919ft 404kts
02-Mar-23 14:41 35.966270 -115.831947 307 24270ft 420kts
02-Mar-23 14:41 36.028632 -115.925789 309 26013ft 429kts
02-Mar-23 14:42 36.105187 -116.041133 309 27874ft 440kts
02-Mar-23 14:43 36.183458 -116.160306 309 29530ft 450kts
02-Mar-23 14:44 36.261738 -116.279939 309 31509ft 445kts
02-Mar-23 14:46 36.352102 -116.418551 309 33712ft 439kts
02-Mar-23 14:46 36.415685 -116.516421 309 34889ft 437kts
02-Mar-23 14:47 36.491826 -116.634005 309 36201ft 434kts
02-Mar-23 14:48 36.567516 -116.750391 313 37519ft 430kts
02-Mar-23 14:49 36.655323 -116.851167 318 38100ft 431kts
02-Mar-23 14:50 36.744672 -116.949054 327 38102ft 426kts
02-Mar-23 14:51 36.849064 -117.017284 332 38110ft 422kts
02-Mar-23 14:52 36.953295 -117.084691 332 38134ft 420kts
02-Mar-23 14:53 37.056979 -117.152221 332 38143ft 419kts
02-Mar-23 14:54 37.160843 -117.220066 333 38127ft 422kts
02-Mar-23 14:55 37.264976 -117.288297 333 38255ft 422kts
02-Mar-23 14:56 37.356818 -117.363201 319 37966ft 386kts
02-Mar-23 14:57 37.445078 -117.443271 319 38134ft 396kts
02-Mar-23 14:58 37.533635 -117.523720 319 38135ft 385kts
02-Mar-23 14:59 37.620062 -117.602575 318 38141ft 382kts
02-Mar-23 15:00 37.709890 -117.684918 326 38471ft 422kts
02-Mar-23 15:01 37.805840 -117.772890 326 38130ft 425kts
02-Mar-23 15:02 37.900507 -117.860117 327 38116ft 418kts
02-Mar-23 15:03 37.993781 -117.946307 327 38099ft 413kts
02-Mar-23 15:04 38.086329 -118.032083 327 38087ft 409kts
02-Mar-23 15:05 38.176548 -118.114669 317 37500ft 379kts
02-Mar-23 15:06 38.261404 -118.194884 317 38058ft 384kts
02-Mar-23 15:07 38.348066 -118.276201 317 38082ft 388kts
02-Mar-23 15:08 38.433407 -118.356214 317 38100ft 378kts
02-Mar-23 15:09 38.517953 -118.435815 317 38115ft 376kts
02-Mar-23 15:10 38.601964 -118.515144 316 38138ft 377kts
02-Mar-23 15:11 38.686916 -118.595601 316 38117ft 382kts
02-Mar-23 15:12 38.772409 -118.676782 316 38095ft 383kts
02-Mar-23 15:13 38.857856 -118.758161 316 38074ft 381kts
02-Mar-23 15:14 38.942467 -118.839008 316 38067ft 378kts
02-Mar-23 15:15 39.026904 -118.919957 316 38072ft 378kts
02-Mar-23 15:16 39.111029 -119.000844 315 38082ft 378kts
02-Mar-23 15:17 39.195360 -119.082143 316 38102ft 379kts
02-Mar-23 15:18 39.295017 -119.136717 332 38124ft 398kts
02-Mar-23 15:19 39.400687 -119.179652 332 38127ft 398kts
02-Mar-23 15:20 39.506144 -119.222815 332 38148ft 397kts
02-Mar-23 15:21 39.611193 -119.265960 331 38166ft 395kts
02-Mar-23 15:22 39.716096 -119.309193 331 38194ft 395kts
02-Mar-23 15:23 39.820873 -119.352528 331 38199ft 397kts
02-Mar-23 15:24 39.926414 -119.396286 331 38206ft 397kts
02-Mar-23 15:25 40.031262 -119.439870 331 38197ft 394kts
02-Mar-23 15:26 40.136785 -119.483991 331 38208ft 400kts
02-Mar-23 15:27 40.242878 -119.528370 331 38196ft 401kts
02-Mar-23 15:28 40.348702 -119.572793 331 38203ft 397kts
02-Mar-23 15:29 40.453247 -119.616880 331 38207ft 393kts
02-Mar-23 15:30 40.557123 -119.660806 331 38195ft 390kts
02-Mar-23 15:31 40.660347 -119.704599 331 38175ft 388kts
02-Mar-23 15:32 40.763103 -119.748382 331 38177ft 391kts
02-Mar-23 15:33 40.867124 -119.792828 331 38171ft 394kts
02-Mar-23 15:34 40.971694 -119.837614 331 38154ft 395kts
02-Mar-23 15:35 41.076882 -119.882841 331 38141ft 398kts
02-Mar-23 15:36 41.182241 -119.928281 331 38140ft 399kts
02-Mar-23 15:37 41.288024 -119.974073 331 38133ft 402kts
02-Mar-23 15:38 41.394821 -120.020449 331 38143ft 403kts
02-Mar-23 15:39 41.501005 -120.066700 331 38156ft 400kts
02-Mar-23 15:40 41.606409 -120.112800 331 38166ft 399kts
02-Mar-23 15:41 41.711858 -120.159083 331 38172ft 399kts
02-Mar-23 15:42 41.817478 -120.205585 331 38162ft 397kts
02-Mar-23 15:43 41.922007 -120.251784 331 38125ft 397kts
02-Mar-23 15:44 42.028076 -120.298873 332 38078ft 405kts
02-Mar-23 15:45 42.134843 -120.346348 332 38054ft 405kts
02-Mar-23 15:46 42.241886 -120.394132 332 38067ft 403kts
02-Mar-23 15:47 42.348370 -120.441870 332 38086ft 402kts
02-Mar-23 15:48 42.454212 -120.489487 332 38100ft 400kts
02-Mar-23 15:49 42.561920 -120.530437 336 38112ft 404kts
02-Mar-23 15:50 42.671684 -120.566888 336 38125ft 411kts
02-Mar-23 15:51 42.783500 -120.604453 336 38092ft 418kts
02-Mar-23 15:52 42.897122 -120.642778 336 38070ft 420kts
02-Mar-23 15:53 43.010213 -120.681075 336 38054ft 419kts
02-Mar-23 15:54 43.123167 -120.719500 336 38048ft 418kts
02-Mar-23 15:55 43.236270 -120.758147 337 38108ft 421kts
02-Mar-23 15:56 43.351661 -120.797772 337 38068ft 432kts
02-Mar-23 15:57 43.468737 -120.838002 337 38059ft 432kts
02-Mar-23 15:58 43.585067 -120.878181 337 38055ft 429kts
02-Mar-23 15:59 43.700417 -120.918202 337 38055ft 427kts
02-Mar-23 16:00 43.815315 -120.958231 337 37998ft 425kts
02-Mar-23 16:01 43.930056 -120.998365 337 37995ft 425kts
02-Mar-23 16:02 44.044785 -121.038654 337 37987ft 425kts
02-Mar-23 16:03 44.159444 -121.079076 337 37981ft 427kts
02-Mar-23 16:04 44.276121 -121.115622 340 37959ft 432kts
02-Mar-23 16:05 44.393992 -121.150234 340 37976ft 433kts
02-Mar-23 16:06 44.512189 -121.185663 340 38001ft 435kts
02-Mar-23 16:07 44.630429 -121.221308 339 38033ft 434kts
02-Mar-23 16:08 44.748113 -121.256945 339 38038ft 432kts
02-Mar-23 16:09 44.865511 -121.292637 339 38036ft 431kts
02-Mar-23 16:10 44.982661 -121.328433 339 38049ft 431kts
02-Mar-23 16:11 45.099781 -121.364346 339 38055ft 431kts
02-Mar-23 16:12 45.216847 -121.400396 339 38044ft 430kts
02-Mar-23 16:13 45.333696 -121.436530 340 38049ft 430kts
02-Mar-23 16:14 45.450731 -121.472879 340 38064ft 430kts
02-Mar-23 16:15 45.567871 -121.509424 340 38070ft 432kts
02-Mar-23 16:16 45.685609 -121.546297 340 38068ft 434kts
02-Mar-23 16:17 45.803646 -121.583425 340 38059ft 434kts
02-Mar-23 16:18 45.921813 -121.620774 340 38041ft 437kts
02-Mar-23 16:19 46.041077 -121.658621 340 38069ft 440kts
02-Mar-23 16:20 46.160693 -121.696742 340 38057ft 441kts
02-Mar-23 16:21 46.280113 -121.734953 340 38065ft 440kts
02-Mar-23 16:22 46.399401 -121.773298 340 38079ft 437kts
02-Mar-23 16:23 46.518240 -121.811697 340 38056ft 437kts
02-Mar-23 16:24 46.636700 -121.850138 340 38083ft 436kts
02-Mar-23 16:25 46.755572 -121.888916 340 38093ft 440kts
02-Mar-23 16:26 46.875288 -121.928114 340 38089ft 442kts
02-Mar-23 16:27 46.995937 -121.967791 339 38052ft 444kts
02-Mar-23 16:28 47.115858 -122.007399 339 38062ft 443kts
02-Mar-23 16:29 47.235217 -122.046954 338 37194ft 434kts
02-Mar-23 16:30 47.353505 -122.086476 338 36214ft 435kts
02-Mar-23 16:31 47.471439 -122.125994 337 34193ft 436kts
02-Mar-23 16:32 47.589121 -122.165519 336 30804ft 426kts
02-Mar-23 16:33 47.701194 -122.203335 335 28039ft 400kts
02-Mar-23 16:34 47.806198 -122.239046 335 25509ft 374kts
02-Mar-23 16:35 47.904345 -122.272480 335 24050ft 340kts
02-Mar-23 16:36 47.992467 -122.298862 336 23735ft 323kts
02-Mar-23 16:37 48.086556 -122.326201 340 19881ft 354kts
02-Mar-23 16:38 48.180559 -122.353312 342 16159ft 340kts
02-Mar-23 16:39 48.272005 -122.379983 343 13762ft 328kts
02-Mar-23 16:40 48.355691 -122.404387 343 12550ft 290kts
02-Mar-23 16:41 48.433388 -122.426185 343 10847ft 280kts
02-Mar-23 16:42 48.509270 -122.446972 343 9133ft 273kts
02-Mar-23 16:43 48.583504 -122.467364 343 7432ft 267kts
02-Mar-23 16:44 48.655573 -122.487386 343 6050ft 254kts
02-Mar-23 16:45 48.721200 -122.487531 0 5108ft 237kts
02-Mar-23 16:46 48.789662 -122.476639 1 2713ft 253kts
02-Mar-23 16:47 48.855250 -122.468583 1 1995ft 209kts
02-Mar-23 16:48 48.885137 -122.498504 260 1798ft 116kts
02-Mar-23 16:49 48.864401 -122.534263 197 1308ft 127kts
02-Mar-23 16:50 48.828647 -122.537357 183 724ft 132kts
02-Mar-23 16:51 48.793715 -122.537526 179 173ft 87kts
02-Mar-23 16:52 48.783634 -122.536723 95 178ft 15kts
02-Mar-23 16:53 48.786982 -122.535813 359 177ft 14kts
02-Mar-23 16:54 48.792213 -122.535843 359 175ft 19kts
02-Mar-23 16:55 48.794642 -122.534149 114 174ft 4kts
02-Mar-23 16:56 48.794786 -122.533295 54 174ft 0kts
02-Mar-23 16:57 48.794786 -122.533295 54 174ft 0kts
02-Mar-23 16:58 48.794786 -122.533295 54 174ft 0kts
02-Mar-23 16:59 48.794786 -122.533295 54 174ft 0kts
02-Mar-23 17:00 48.794786 -122.533295 54 174ft 0kts
02-Mar-23 17:01 48.794786 -122.533295 54 174ft 0kts
02-Mar-23 17:02 48.794786 -122.533295 54 174ft 0kts
02-Mar-23 17:03 48.794786 -122.533295 54 174ft 0kts
02-Mar-23 17:04 48.794786 -122.533295 54 174ft 0kts
02-Mar-23 17:05 48.794786 -122.533295 54 174ft 0kts
02-Mar-23 17:06 48.794786 -122.533295 54 174ft 0kts

Navigation Log

Ident Type
Flight plan parsing failed, navigation log unavailable